Time;durP1;ratioP1;P1;durP2;ratioP2;P2;SDS_P1;SDS_P2;PMS_P1;PMS_P2;Temp;Humidity;BMP_temperature;BMP_pressure;BME280_temperature;BME280_humidity;BME280_pressure;Samples;Min_cycle;Max_cycle;Signal;HPM_P1;HPM_P2
2022/03/13 00:02:07;;;;;;;19.20;13.20;;;7.40;99.90;;;;;;4993471;28;20045;-83
2022/03/13 00:04:35;;;;;;;23.40;14.45;;;7.30;99.90;;;;;;5009480;28;20064;-77
2022/03/13 00:07:05;;;;;;;22.98;15.15;;;7.30;99.90;;;;;;5011521;28;20041;-81
2022/03/13 00:09:30;;;;;;;20.73;14.88;;;7.20;99.90;;;;;;5008827;28;20041;-78
2022/03/13 00:11:56;;;;;;;20.58;15.02;;;7.20;99.90;;;;;;5008369;28;20060;-80
2022/03/13 00:14:25;;;;;;;24.52;14.65;;;7.10;99.90;;;;;;4989936;28;20057;-79
2022/03/13 00:16:52;;;;;;;26.45;15.05;;;7.10;99.90;;;;;;4990000;28;20049;-76
2022/03/13 00:19:20;;;;;;;23.48;15.48;;;7.00;99.90;;;;;;4992086;28;20049;-74
2022/03/13 00:21:52;;;;;;;27.25;15.10;;;7.00;99.90;;;;;;5006873;28;20055;-76
2022/03/13 00:24:20;;;;;;;29.33;14.07;;;6.90;99.90;;;;;;5007450;28;20132;-77
2022/03/13 00:26:50;;;;;;;20.45;15.13;;;7.00;99.90;;;;;;5006410;28;20045;-83
2022/03/13 00:29:16;;;;;;;26.10;14.55;;;6.90;99.90;;;;;;5015487;28;20211;-78
2022/03/13 00:31:42;;;;;;;23.20;14.82;;;6.90;99.90;;;;;;5073597;28;20522;-85
2022/03/13 00:34:08;;;;;;;21.23;14.13;;;6.90;99.90;;;;;;5104298;28;20347;-80
2022/03/13 00:36:34;;;;;;;18.50;13.98;;;6.90;99.90;;;;;;5087377;28;20482;-78
2022/03/13 00:38:59;;;;;;;21.95;14.85;;;6.90;99.90;;;;;;5104768;28;20471;-80
2022/03/13 00:41:25;;;;;;;20.92;14.57;;;7.00;99.90;;;;;;5104216;28;20062;-75
2022/03/13 00:43:51;;;;;;;25.63;15.57;;;7.00;99.90;;;;;;5107387;28;20094;-79
2022/03/13 00:46:16;;;;;;;20.50;14.25;;;7.00;99.90;;;;;;5102960;28;20047;-81
2022/03/13 00:48:42;;;;;;;22.70;14.75;;;7.00;99.90;;;;;;5098912;28;20044;-77
2022/03/13 00:51:08;;;;;;;31.55;15.55;;;7.00;99.90;;;;;;5103522;27;20047;-76
2022/03/13 00:53:34;;;;;;;25.80;15.23;;;7.00;99.90;;;;;;5104990;28;20507;-79
2022/03/13 00:55:59;;;;;;;26.65;14.85;;;7.10;99.90;;;;;;5083556;28;20051;-79
2022/03/13 00:58:25;;;;;;;28.02;15.85;;;7.00;99.90;;;;;;5086421;28;20047;-79
2022/03/13 01:00:51;;;;;;;20.27;14.82;;;7.10;99.90;;;;;;5086860;28;20051;-83
2022/03/13 01:03:30;;;;;;;21.25;14.57;;;7.10;99.90;;;;;;5089864;28;20077;-79
2022/03/13 01:05:56;;;;;;;23.40;15.27;;;7.20;99.90;;;;;;5104160;28;20035;-78
2022/03/13 01:08:22;;;;;;;25.17;14.50;;;7.10;99.90;;;;;;5084113;28;20135;-77
2022/03/13 01:10:50;;;;;;;26.77;14.77;;;7.10;99.90;;;;;;5104125;28;20465;-78
2022/03/13 01:13:15;;;;;;;21.55;15.20;;;7.20;99.90;;;;;;5105921;28;20083;-78
2022/03/13 01:15:45;;;;;;;22.90;15.07;;;7.10;99.90;;;;;;5105628;28;20063;-77
2022/03/13 01:18:10;;;;;;;22.63;15.05;;;7.10;99.90;;;;;;5105819;28;20051;-82
2022/03/13 01:20:36;;;;;;;25.13;15.07;;;7.20;99.90;;;;;;5108756;28;20455;-79
2022/03/13 01:23:01;;;;;;;21.80;14.23;;;7.10;99.90;;;;;;5089632;28;20051;-82
2022/03/13 01:25:27;;;;;;;21.02;15.57;;;7.20;99.90;;;;;;5106190;28;20513;-81
2022/03/13 01:27:53;;;;;;;24.00;14.30;;;7.20;99.90;;;;;;5086906;28;20496;-78
2022/03/13 01:30:19;;;;;;;22.38;15.32;;;7.30;99.90;;;;;;5086518;28;20035;-81
2022/03/13 01:32:52;;;;;;;22.48;16.35;;;7.30;99.90;;;;;;5106194;28;20126;-80
2022/03/13 01:35:23;;;;;;;23.33;16.02;;;7.30;99.90;;;;;;5103128;28;20441;-80
2022/03/13 01:37:51;;;;;;;26.83;16.42;;;7.20;99.90;;;;;;5107030;28;20036;-85
2022/03/13 01:40:26;;;;;;;26.88;15.73;;;7.20;99.90;;;;;;5105236;28;20050;-84
2022/03/13 01:42:54;;;;;;;25.27;16.48;;;7.20;99.90;;;;;;5106327;28;20467;-83
2022/03/13 01:45:24;;;;;;;23.95;16.10;;;7.20;99.90;;;;;;5102560;28;20490;-79
2022/03/13 01:47:50;;;;;;;23.25;14.40;;;7.20;99.90;;;;;;5105019;28;20040;-79
2022/03/13 01:50:17;;;;;;;29.77;15.93;;;7.20;99.90;;;;;;5090987;28;20043;-78
2022/03/13 01:52:47;;;;;;;25.45;16.13;;;7.20;99.90;;;;;;5096370;28;20044;-77
2022/03/13 01:55:12;;;;;;;23.20;15.02;;;7.20;99.90;;;;;;5105327;27;20118;-80
2022/03/13 01:57:38;;;;;;;25.05;15.80;;;7.10;99.90;;;;;;5092338;28;20130;-81
2022/03/13 02:00:07;;;;;;;20.17;14.35;;;7.20;99.90;;;;;;5111637;27;20044;-82
2022/03/13 02:02:34;;;;;;;23.00;15.13;;;7.10;99.90;;;;;;5109397;27;20044;-81
2022/03/13 02:05:00;;;;;;;21.42;15.40;;;7.10;99.90;;;;;;5109347;28;20396;-79
2022/03/13 02:07:27;;;;;;;22.70;14.75;;;7.00;99.90;;;;;;5092938;28;20070;-79
2022/03/13 02:09:54;;;;;;;23.50;15.02;;;7.10;99.90;;;;;;5110482;27;20069;-81
2022/03/13 02:12:20;;;;;;;22.08;14.95;;;7.10;99.90;;;;;;5106360;28;20415;-77
2022/03/13 02:14:51;;;;;;;24.13;15.00;;;7.10;99.90;;;;;;5094368;28;20051;-77
2022/03/13 02:17:34;;;;;;;22.67;15.63;;;7.00;99.90;;;;;;5087721;28;20062;-83
2022/03/13 02:20:00;;;;;;;20.35;15.05;;;7.20;99.90;;;;;;5093760;28;20039;-81
2022/03/13 02:22:26;;;;;;;24.35;16.65;;;7.00;99.90;;;;;;5107909;28;20047;-79
2022/03/13 02:24:52;;;;;;;28.85;16.42;;;7.00;99.90;;;;;;5094021;27;20149;-79
2022/03/13 02:27:27;;;;;;;28.45;15.80;;;7.00;99.90;;;;;;5106875;27;20367;-80
2022/03/13 02:29:53;;;;;;;28.15;15.48;;;6.90;99.90;;;;;;5105078;27;20031;-79
2022/03/13 02:32:19;;;;;;;23.40;15.35;;;7.00;99.90;;;;;;5110854;27;20547;-83
2022/03/13 02:34:47;;;;;;;22.60;15.88;;;7.00;99.90;;;;;;5108501;27;20494;-79
2022/03/13 02:37:30;;;;;;;22.92;16.30;;;7.00;99.90;;;;;;5108113;27;20062;-82
2022/03/13 02:39:56;;;;;;;22.77;15.50;;;6.90;99.90;;;;;;5108178;27;21748;-78
2022/03/13 02:42:21;;;;;;;22.88;15.93;;;6.90;99.90;;;;;;5107640;28;20044;-82
2022/03/13 02:44:49;;;;;;;23.38;16.02;;;6.90;99.90;;;;;;5106712;27;20395;-80
2022/03/13 02:47:14;;;;;;;24.73;15.60;;;6.90;99.90;;;;;;5107233;28;20043;-83
2022/03/13 02:49:40;;;;;;;22.38;16.10;;;6.90;99.90;;;;;;5110778;27;20036;-78
2022/03/13 02:52:06;;;;;;;23.00;16.27;;;6.90;99.90;;;;;;5106440;28;20067;-80
2022/03/13 02:54:32;;;;;;;23.25;16.35;;;6.90;99.90;;;;;;5108970;27;20391;-78
2022/03/13 02:56:59;;;;;;;20.15;14.85;;;7.00;99.90;;;;;;5105358;27;20047;-79
2022/03/13 02:59:25;;;;;;;21.58;15.77;;;7.00;99.90;;;;;;5104904;27;20119;-79
2022/03/13 03:01:51;;;;;;;22.92;16.27;;;7.00;99.90;;;;;;5088292;28;20047;-78
2022/03/13 03:04:17;;;;;;;24.92;16.58;;;7.00;99.90;;;;;;5107514;27;20131;-81
2022/03/13 03:06:59;;;;;;;24.15;16.20;;;6.90;99.90;;;;;;5090478;27;20573;-85
2022/03/13 03:09:26;;;;;;;23.70;16.30;;;6.90;99.90;;;;;;5108427;27;20080;-82
2022/03/13 03:11:52;;;;;;;25.30;16.73;;;7.00;99.90;;;;;;5102025;27;20043;-83
2022/03/13 03:14:19;;;;;;;26.35;16.50;;;7.00;99.90;;;;;;5081643;28;20043;-84
2022/03/13 03:16:44;;;;;;;22.50;15.98;;;7.00;99.90;;;;;;5100339;27;20047;-82
2022/03/13 03:19:11;;;;;;;24.08;16.35;;;7.00;99.90;;;;;;5085456;27;20036;-79
2022/03/13 03:21:38;;;;;;;23.70;16.02;;;7.00;99.90;;;;;;5095805;28;20353;-80
2022/03/13 03:24:11;;;;;;;25.85;16.60;;;7.00;99.90;;;;;;5081164;27;20040;-78
2022/03/13 03:26:37;;;;;;;24.30;16.33;;;6.90;99.90;;;;;;5103845;27;20442;-76
2022/03/13 03:29:04;;;;;;;25.85;16.70;;;6.90;99.90;;;;;;5105796;27;20129;-79
2022/03/13 03:31:30;;;;;;;23.05;16.50;;;6.90;99.90;;;;;;5103130;27;20664;-79
2022/03/13 03:33:55;;;;;;;24.50;16.85;;;6.90;99.90;;;;;;5084675;28;20038;-82
2022/03/13 03:36:21;;;;;;;25.45;16.85;;;6.90;99.90;;;;;;5123742;27;20054;-81
2022/03/13 03:38:47;;;;;;;24.35;15.70;;;6.90;99.90;;;;;;5107539;27;20039;-80
2022/03/13 03:41:13;;;;;;;25.00;16.98;;;6.90;99.90;;;;;;5104241;27;20031;-83
2022/03/13 03:43:38;;;;;;;26.35;16.90;;;6.80;99.90;;;;;;5110384;27;20032;-80
2022/03/13 03:46:04;;;;;;;25.38;16.02;;;6.80;99.90;;;;;;5107951;27;20044;-81
2022/03/13 03:48:31;;;;;;;24.33;16.60;;;6.80;99.90;;;;;;5106655;28;20035;-79
2022/03/13 03:50:57;;;;;;;20.45;15.80;;;6.70;99.90;;;;;;5091709;28;20036;-84
2022/03/13 03:53:22;;;;;;;26.67;16.48;;;6.80;99.90;;;;;;5109821;28;20050;-79
2022/03/13 03:55:48;;;;;;;23.13;16.90;;;6.70;99.90;;;;;;5091960;28;20134;-79
2022/03/13 03:58:13;;;;;;;26.17;16.52;;;6.60;99.90;;;;;;5110014;27;20048;-79
2022/03/13 04:00:39;;;;;;;24.65;17.17;;;6.50;99.90;;;;;;5092219;27;20047;-79
2022/03/13 04:03:05;;;;;;;23.83;16.55;;;6.70;99.90;;;;;;5104478;28;20067;-74
2022/03/13 04:05:32;;;;;;;23.80;15.68;;;6.50;99.90;;;;;;5123215;27;20032;-84
2022/03/13 04:07:58;;;;;;;22.40;15.77;;;6.50;99.90;;;;;;5109254;27;20085;-77
2022/03/13 04:10:24;;;;;;;26.77;16.40;;;6.50;99.90;;;;;;5105217;28;20036;-79
2022/03/13 04:12:50;;;;;;;25.35;16.13;;;6.40;99.90;;;;;;5110386;27;20086;-79
2022/03/13 04:15:16;;;;;;;23.75;16.30;;;6.40;99.90;;;;;;5105471;27;20090;-77
2022/03/13 04:17:41;;;;;;;24.08;16.20;;;6.40;99.90;;;;;;5086827;28;20043;-80
2022/03/13 04:20:08;;;;;;;24.98;17.08;;;6.40;99.90;;;;;;5102804;28;20038;-82
2022/03/13 04:22:34;;;;;;;22.67;16.67;;;6.40;99.90;;;;;;5085761;28;20455;-79
2022/03/13 04:24:59;;;;;;;23.73;17.40;;;6.30;99.90;;;;;;5106706;27;20040;-78
2022/03/13 04:27:25;;;;;;;27.33;17.30;;;6.30;99.90;;;;;;5112321;27;20062;-78
2022/03/13 04:29:51;;;;;;;24.38;16.92;;;6.20;99.90;;;;;;5111998;27;20715;-79
2022/03/13 04:32:21;;;;;;;23.00;17.00;;;6.20;99.90;;;;;;5094979;28;20379;-84
2022/03/13 04:34:47;;;;;;;20.95;15.48;;;6.20;99.90;;;;;;5103981;27;20043;-80
2022/03/13 04:37:13;;;;;;;23.90;17.08;;;6.20;99.90;;;;;;5110120;27;20043;-82
2022/03/13 04:39:39;;;;;;;25.88;16.98;;;6.40;99.90;;;;;;5105764;27;20034;-76
2022/03/13 04:42:05;;;;;;;24.00;15.40;;;6.10;99.90;;;;;;5107591;27;20035;-79
2022/03/13 04:44:32;;;;;;;28.00;16.98;;;6.10;99.90;;;;;;5105483;28;20041;-82
2022/03/13 04:46:59;;;;;;;23.10;16.75;;;6.20;99.90;;;;;;5087874;28;20035;-78
2022/03/13 04:49:25;;;;;;;22.50;15.93;;;6.10;99.90;;;;;;5110031;27;20114;-79
2022/03/13 04:51:50;;;;;;;29.67;16.70;;;6.10;99.90;;;;;;5104671;28;20138;-79
2022/03/13 04:54:17;;;;;;;26.85;15.85;;;6.10;99.90;;;;;;5105909;28;20395;-79
2022/03/13 04:56:44;;;;;;;26.27;16.75;;;6.10;99.90;;;;;;5104517;28;20043;-79
2022/03/13 04:59:10;;;;;;;25.35;16.50;;;6.10;99.90;;;;;;5105625;28;20055;-84
2022/03/13 05:01:36;;;;;;;20.58;15.45;;;6.10;99.90;;;;;;5088641;28;20085;-82
2022/03/13 05:04:01;;;;;;;26.63;16.77;;;6.20;99.90;;;;;;5108370;28;20075;-80
2022/03/13 05:06:28;;;;;;;28.80;16.15;;;6.20;99.90;;;;;;5087954;28;20043;-78
2022/03/13 05:08:54;;;;;;;22.65;16.60;;;6.20;99.90;;;;;;5108395;28;20039;-79
2022/03/13 05:11:20;;;;;;;23.52;16.00;;;6.20;99.90;;;;;;5102599;28;20042;-78
2022/03/13 05:13:45;;;;;;;25.98;16.13;;;6.10;99.90;;;;;;5083704;28;20197;-78
2022/03/13 05:16:11;;;;;;;23.25;15.70;;;6.10;99.90;;;;;;5073972;28;20111;-79
2022/03/13 05:18:37;;;;;;;23.50;15.82;;;6.10;99.90;;;;;;5077291;28;20044;-81
2022/03/13 05:21:02;;;;;;;27.17;15.95;;;6.00;99.90;;;;;;5076393;28;20387;-79
2022/03/13 05:23:28;;;;;;;25.98;14.52;;;6.00;99.90;;;;;;5106646;28;20042;-79
2022/03/13 05:25:54;;;;;;;19.67;15.63;;;6.00;99.90;;;;;;5105012;28;20044;-81
2022/03/13 05:28:20;;;;;;;24.42;15.85;;;6.00;99.90;;;;;;5100001;28;20130;-83
2022/03/13 05:30:46;;;;;;;23.13;15.43;;;5.90;99.90;;;;;;5089408;28;20036;-83
2022/03/13 05:33:12;;;;;;;28.05;16.02;;;5.80;99.90;;;;;;5086024;28;20051;-79
2022/03/13 05:35:38;;;;;;;21.95;15.27;;;5.80;99.90;;;;;;5091579;28;20570;-78
2022/03/13 05:38:04;;;;;;;24.92;16.00;;;5.70;99.90;;;;;;5113517;28;20185;-82
2022/03/13 05:40:30;;;;;;;23.90;15.80;;;5.70;99.90;;;;;;5090260;28;20088;-83
2022/03/13 05:42:58;;;;;;;26.50;16.13;;;5.70;99.90;;;;;;5100663;28;20054;-81
2022/03/13 05:45:26;;;;;;;23.88;15.52;;;5.70;99.90;;;;;;5112777;28;20059;-82
2022/03/13 05:47:58;;;;;;;24.05;15.35;;;5.70;99.90;;;;;;5107809;27;20474;-79
2022/03/13 05:50:25;;;;;;;24.00;16.17;;;5.80;99.90;;;;;;5097229;28;20124;-77
2022/03/13 05:52:55;;;;;;;20.70;15.57;;;5.90;99.90;;;;;;5111301;28;20140;-79
2022/03/13 05:55:22;;;;;;;24.98;14.43;;;5.70;99.90;;;;;;5096803;28;20055;-78
2022/03/13 05:57:47;;;;;;;22.27;14.82;;;5.70;99.90;;;;;;5110052;28;20031;-78
2022/03/13 06:00:15;;;;;;;21.95;15.50;;;5.70;99.90;;;;;;5110354;28;20428;-78
2022/03/13 06:02:42;;;;;;;19.67;14.85;;;5.70;99.90;;;;;;5109542;28;20067;-79
2022/03/13 06:05:10;;;;;;;24.80;15.57;;;5.70;99.90;;;;;;5093126;28;20077;-78
2022/03/13 06:07:40;;;;;;;19.73;14.32;;;5.80;99.90;;;;;;5093792;28;20039;-78
2022/03/13 06:10:08;;;;;;;26.02;15.15;;;5.80;99.90;;;;;;5110448;28;20031;-79
2022/03/13 06:12:35;;;;;;;22.25;15.55;;;5.90;99.90;;;;;;5110027;28;20055;-78
2022/03/13 06:15:02;;;;;;;20.33;14.70;;;5.80;99.90;;;;;;5123539;27;20050;-86
2022/03/13 06:17:28;;;;;;;22.60;15.02;;;5.90;99.90;;;;;;5127272;27;20054;-83
2022/03/13 06:19:55;;;;;;;20.75;14.75;;;5.90;99.90;;;;;;5119439;27;20490;-82
2022/03/13 06:22:23;;;;;;;21.48;14.93;;;5.90;99.90;;;;;;5113737;27;20040;-81
2022/03/13 06:24:49;;;;;;;22.60;15.10;;;5.90;99.90;;;;;;5110718;27;20556;-82
2022/03/13 06:27:16;;;;;;;20.00;14.25;;;5.90;99.90;;;;;;5111513;27;20035;-86
2022/03/13 06:29:42;;;;;;;24.23;15.35;;;5.90;99.90;;;;;;5108673;27;20073;-81
2022/03/13 06:32:07;;;;;;;24.30;14.35;;;6.10;99.90;;;;;;5107927;28;20432;-77
2022/03/13 06:34:35;;;;;;;20.58;14.25;;;5.90;99.90;;;;;;5110042;27;20043;-83
2022/03/13 06:37:01;;;;;;;19.58;14.57;;;5.90;99.90;;;;;;5110394;28;20039;-83
2022/03/13 06:39:27;;;;;;;23.80;14.38;;;6.10;99.90;;;;;;5112826;27;20043;-87
2022/03/13 06:41:53;;;;;;;21.05;14.85;;;6.00;99.90;;;;;;5109536;27;20405;-84
2022/03/13 06:44:19;;;;;;;21.10;14.18;;;6.00;99.90;;;;;;5093264;28;20074;-83
2022/03/13 06:46:45;;;;;;;19.80;14.25;;;6.00;99.90;;;;;;5113012;27;20062;-78
2022/03/13 06:49:10;;;;;;;23.13;14.48;;;6.00;99.90;;;;;;5103852;28;20067;-77
2022/03/13 06:51:40;;;;;;;22.63;13.57;;;6.00;99.90;;;;;;5108603;28;20135;-87
2022/03/13 06:54:09;;;;;;;20.95;14.05;;;6.00;99.90;;;;;;5096881;28;20119;-78
2022/03/13 06:56:35;;;;;;;20.45;13.55;;;6.00;99.90;;;;;;5108989;27;20465;-82
2022/03/13 06:59:05;;;;;;;19.85;14.07;;;6.00;99.90;;;;;;5093762;27;20074;-81
2022/03/13 07:01:32;;;;;;;18.05;13.70;;;6.10;99.90;;;;;;5105808;27;20041;-78
2022/03/13 07:03:58;;;;;;;22.88;14.32;;;6.00;99.90;;;;;;5105967;28;20063;-88
2022/03/13 07:06:24;;;;;;;19.45;13.57;;;6.10;99.90;;;;;;5093236;28;20043;-84
2022/03/13 07:08:49;;;;;;;23.83;14.77;;;6.10;99.90;;;;;;5116479;27;20039;-79
2022/03/13 07:11:16;;;;;;;21.17;14.27;;;6.20;99.90;;;;;;5094552;28;20048;-82
2022/03/13 07:13:45;;;;;;;21.27;14.27;;;6.20;99.90;;;;;;5093233;28;20399;-81
2022/03/13 07:16:14;;;;;;;19.80;13.25;;;6.20;99.90;;;;;;5089842;28;20125;-81
2022/03/13 07:18:40;;;;;;;20.30;13.82;;;6.40;99.90;;;;;;5090149;27;20042;-78
2022/03/13 07:21:06;;;;;;;21.65;14.02;;;6.40;99.90;;;;;;5098285;28;20035;-80
2022/03/13 07:23:32;;;;;;;19.25;12.75;;;6.50;99.90;;;;;;5104733;27;20174;-81
2022/03/13 07:25:59;;;;;;;20.08;13.05;;;6.60;99.90;;;;;;5082737;28;20491;-84
2022/03/13 07:28:26;;;;;;;22.77;13.80;;;6.60;99.90;;;;;;5106290;27;20043;-82
2022/03/13 07:30:52;;;;;;;19.42;13.40;;;6.60;99.90;;;;;;5109032;27;20046;-82
2022/03/13 07:33:18;;;;;;;21.45;13.18;;;6.60;99.90;;;;;;5110732;27;20028;-84
2022/03/13 07:35:44;;;;;;;25.63;13.25;;;6.70;99.90;;;;;;5086761;28;20175;-82
2022/03/13 07:38:10;;;;;;;19.95;12.65;;;6.80;99.90;;;;;;5091978;28;20141;-80
2022/03/13 07:40:36;;;;;;;20.42;12.85;;;6.90;99.90;;;;;;5107929;28;20515;-79
2022/03/13 07:43:02;;;;;;;21.63;13.23;;;6.90;99.90;;;;;;5110750;27;20123;-84
2022/03/13 07:45:28;;;;;;;19.30;13.13;;;7.00;99.90;;;;;;5109111;27;20085;-80
2022/03/13 07:47:57;;;;;;;23.20;13.05;;;7.10;99.90;;;;;;5109441;28;20134;-83
2022/03/13 07:50:27;;;;;;;19.38;13.80;;;7.10;99.90;;;;;;5109206;27;20110;-81
2022/03/13 07:52:53;;;;;;;21.63;12.98;;;7.20;99.90;;;;;;5113591;27;20044;-79
2022/03/13 07:55:19;;;;;;;19.58;13.48;;;7.20;99.90;;;;;;5111729;27;20034;-82
2022/03/13 07:57:44;;;;;;;21.17;13.80;;;7.30;99.90;;;;;;5103451;28;20047;-78
2022/03/13 08:00:12;;;;;;;23.63;13.65;;;7.40;99.90;;;;;;5107573;27;20455;-79
2022/03/13 08:02:37;;;;;;;21.95;11.63;;;7.30;99.90;;;;;;5108910;27;20496;-80
2022/03/13 08:05:03;;;;;;;18.98;13.40;;;7.30;99.90;;;;;;5106875;28;20143;-78
2022/03/13 08:07:29;;;;;;;21.42;13.43;;;7.30;99.90;;;;;;5110452;27;20039;-79
2022/03/13 08:09:55;;;;;;;21.42;13.88;;;7.40;99.90;;;;;;5111514;27;20169;-78
2022/03/13 08:12:20;;;;;;;20.65;13.23;;;7.40;99.90;;;;;;5107847;28;20050;-78
2022/03/13 08:14:46;;;;;;;21.15;13.18;;;7.50;99.90;;;;;;5108011;27;20035;-76
2022/03/13 08:17:12;;;;;;;18.20;13.20;;;7.60;99.90;;;;;;5107848;27;20085;-80
2022/03/13 08:19:37;;;;;;;19.17;12.73;;;7.60;99.90;;;;;;5087534;28;20150;-76
2022/03/13 08:22:03;;;;;;;18.88;12.35;;;7.70;99.90;;;;;;5107291;27;20058;-78
2022/03/13 08:24:29;;;;;;;17.23;12.90;;;7.70;99.90;;;;;;5089080;28;20528;-78
2022/03/13 08:26:55;;;;;;;21.38;12.98;;;7.80;99.90;;;;;;5105756;27;20027;-77
2022/03/13 08:29:21;;;;;;;19.52;12.52;;;7.90;99.90;;;;;;5104672;28;20073;-76
2022/03/13 08:31:46;;;;;;;17.15;12.35;;;8.00;99.90;;;;;;5103197;27;20111;-76
2022/03/13 08:34:12;;;;;;;16.92;12.25;;;8.20;99.90;;;;;;5090815;27;20048;-81
2022/03/13 08:36:40;;;;;;;19.70;13.15;;;8.30;99.90;;;;;;5100397;27;20044;-77
2022/03/13 08:39:06;;;;;;;19.65;12.23;;;8.40;99.90;;;;;;5103295;28;20506;-79
2022/03/13 08:41:33;;;;;;;20.52;13.10;;;8.60;99.90;;;;;;5100692;28;20432;-78
2022/03/13 08:43:59;;;;;;;17.83;13.32;;;8.60;99.90;;;;;;5107696;27;20035;-79
2022/03/13 08:46:25;;;;;;;21.38;12.82;;;8.70;99.90;;;;;;5083231;28;20481;-80
2022/03/13 08:48:51;;;;;;;16.38;12.52;;;8.80;99.90;;;;;;5106894;28;20407;-78
2022/03/13 08:51:18;;;;;;;18.35;12.90;;;8.90;99.90;;;;;;5106260;28;20063;-82
2022/03/13 08:53:47;;;;;;;17.73;13.10;;;9.20;99.90;;;;;;5109658;28;20328;-82
2022/03/13 08:56:13;;;;;;;17.60;12.50;;;9.20;99.90;;;;;;5111064;28;20071;-86
2022/03/13 08:58:43;;;;;;;18.65;13.07;;;9.20;99.90;;;;;;5096415;27;20130;-79
2022/03/13 09:01:10;;;;;;;19.83;13.10;;;9.50;99.90;;;;;;5110380;27;20043;-82
2022/03/13 09:03:36;;;;;;;19.25;12.00;;;9.20;99.90;;;;;;5111744;28;20050;-82
2022/03/13 09:06:02;;;;;;;28.80;12.30;;;9.40;99.90;;;;;;5089959;28;20122;-82
2022/03/13 09:08:28;;;;;;;18.55;12.13;;;9.20;99.90;;;;;;5102452;28;20052;-80
2022/03/13 09:10:56;;;;;;;21.00;11.18;;;9.30;99.90;;;;;;5088009;28;20053;-85
2022/03/13 09:13:22;;;;;;;19.02;12.82;;;9.20;99.90;;;;;;5080128;28;20079;-82
2022/03/13 09:15:48;;;;;;;17.20;11.77;;;9.30;99.90;;;;;;5110409;28;20090;-83
2022/03/13 09:18:14;;;;;;;19.20;12.00;;;9.30;99.90;;;;;;5096344;28;20332;-83
2022/03/13 09:20:40;;;;;;;17.60;11.30;;;9.30;99.90;;;;;;5109547;28;20035;-78
2022/03/13 09:23:06;;;;;;;19.85;12.95;;;9.30;99.90;;;;;;5114778;28;20040;-79
2022/03/13 09:25:35;;;;;;;18.88;11.88;;;9.40;99.90;;;;;;5112352;28;20126;-80
2022/03/13 09:28:02;;;;;;;18.40;11.80;;;9.40;99.90;;;;;;5104091;28;20028;-80
2022/03/13 09:30:28;;;;;;;18.70;12.07;;;9.60;99.90;;;;;;5092659;28;20067;-79
2022/03/13 09:32:54;;;;;;;18.75;12.50;;;9.50;99.90;;;;;;5095468;28;20070;-80
2022/03/13 09:35:20;;;;;;;17.90;12.30;;;9.60;99.90;;;;;;5112516;28;20051;-84
2022/03/13 09:37:49;;;;;;;16.02;11.68;;;9.70;99.90;;;;;;5112865;28;20041;-83
2022/03/13 09:40:17;;;;;;;18.55;11.85;;;9.70;99.90;;;;;;5116820;28;20062;-83
2022/03/13 09:42:44;;;;;;;22.60;12.02;;;10.30;99.90;;;;;;5107381;28;20035;-84
2022/03/13 09:45:10;;;;;;;16.83;11.30;;;9.80;99.90;;;;;;5096881;28;20039;-82
2022/03/13 09:47:37;;;;;;;21.02;12.20;;;9.90;99.90;;;;;;5091180;28;20146;-81
2022/03/13 09:50:03;;;;;;;19.13;12.82;;;10.00;99.90;;;;;;5096386;28;20409;-80
2022/03/13 09:52:28;;;;;;;15.57;10.95;;;10.00;99.90;;;;;;5103887;28;20444;-80
2022/03/13 09:54:54;;;;;;;19.30;12.98;;;10.10;99.90;;;;;;5083215;28;20067;-81
2022/03/13 09:57:20;;;;;;;18.58;12.90;;;10.30;99.90;;;;;;5085448;28;20057;-83
2022/03/13 09:59:46;;;;;;;16.35;12.35;;;10.30;99.90;;;;;;5078728;28;20051;-79
2022/03/13 10:02:12;;;;;;;18.83;12.40;;;10.40;99.90;;;;;;5111481;28;20491;-80
2022/03/13 10:04:37;;;;;;;19.95;11.68;;;10.50;99.90;;;;;;5110729;28;20039;-81
2022/03/13 10:07:03;;;;;;;17.17;11.95;;;10.60;99.90;;;;;;5105580;28;20092;-79
2022/03/13 10:09:30;;;;;;;18.05;12.43;;;10.70;99.90;;;;;;5094043;28;20112;-82
2022/03/13 10:12:08;;;;;;;18.55;11.90;;;10.80;99.90;;;;;;5094165;28;20458;-80
2022/03/13 10:14:35;;;;;;;18.42;12.00;;;10.90;99.90;;;;;;5097513;27;20522;-80
2022/03/13 10:17:01;;;;;;;17.55;12.45;;;11.00;99.90;;;;;;5116829;27;20039;-81
2022/03/13 10:19:28;;;;;;;23.35;13.00;;;11.10;99.90;;;;;;5121022;27;20193;-80
2022/03/13 10:22:07;;;;;;;18.80;13.38;;;11.30;99.90;;;;;;5110876;27;20036;-80
2022/03/13 10:24:46;;;;;;;21.25;12.40;;;11.50;99.90;;;;;;5118586;27;20122;-83
2022/03/13 10:27:17;;;;;;;18.20;11.77;;;11.60;99.90;;;;;;5120533;27;20118;-84
2022/03/13 10:29:45;;;;;;;17.25;12.13;;;11.90;99.90;;;;;;5094877;28;20069;-80
2022/03/13 10:32:11;;;;;;;18.45;12.15;;;12.00;99.90;;;;;;5111967;27;20057;-86
2022/03/13 10:34:38;;;;;;;16.77;12.90;;;12.20;99.90;;;;;;5099843;28;20467;-80
2022/03/13 10:37:04;;;;;;;17.10;12.93;;;12.40;99.90;;;;;;5111401;27;20036;-81
2022/03/13 10:39:32;;;;;;;16.95;11.90;;;12.50;99.90;;;;;;5112252;27;20036;-80
2022/03/13 10:42:03;;;;;;;19.30;12.45;;;12.70;99.90;;;;;;5095015;28;20498;-80
2022/03/13 10:44:43;;;;;;;16.30;12.48;;;12.90;99.00;;;;;;5094404;28;20040;-76
2022/03/13 10:47:10;;;;;;;18.17;12.43;;;13.20;99.90;;;;;;5095980;28;20110;-77
2022/03/13 10:49:41;;;;;;;17.75;12.45;;;13.40;99.80;;;;;;5095856;28;20474;-80
2022/03/13 10:52:30;;;;;;;20.65;12.38;;;13.60;98.20;;;;;;5111822;28;20159;-77
2022/03/13 10:55:14;;;;;;;16.52;11.93;;;13.70;96.30;;;;;;5111675;28;20054;-78
2022/03/13 10:57:54;;;;;;;16.75;11.98;;;13.70;96.80;;;;;;5112593;28;20370;-81
2022/03/13 11:00:22;;;;;;;17.75;11.77;;;14.00;97.60;;;;;;5115728;27;20091;-80
2022/03/13 11:02:49;;;;;;;27.85;13.45;;;14.20;97.80;;;;;;5115569;27;20157;-81
2022/03/13 11:05:15;;;;;;;19.98;12.30;;;14.30;95.90;;;;;;5106469;28;20044;-81
2022/03/13 11:07:41;;;;;;;16.38;12.45;;;14.40;94.60;;;;;;5102443;28;20027;-82
2022/03/13 11:10:09;;;;;;;17.30;12.27;;;14.30;95.60;;;;;;5109179;28;20069;-78
2022/03/13 11:12:37;;;;;;;19.58;12.52;;;14.60;96.20;;;;;;5104319;28;20043;-82
2022/03/13 11:15:03;;;;;;;18.83;12.02;;;14.60;94.90;;;;;;5111090;28;20650;-80
2022/03/13 11:17:32;;;;;;;16.55;12.27;;;14.80;94.40;;;;;;5095178;28;20046;-85
2022/03/13 11:19:59;;;;;;;17.63;12.52;;;15.00;95.10;;;;;;5093527;28;20043;-81
2022/03/13 11:22:26;;;;;;;16.83;11.98;;;15.20;95.00;;;;;;5112178;28;20054;-78
2022/03/13 11:24:59;;;;;;;17.27;11.77;;;15.40;93.40;;;;;;5112510;28;20036;-82
2022/03/13 11:27:26;;;;;;;16.08;12.30;;;15.50;94.40;;;;;;5095286;28;20048;-79
2022/03/13 11:29:54;;;;;;;19.65;12.90;;;15.60;93.20;;;;;;5109935;28;20435;-82
2022/03/13 11:32:29;;;;;;;17.73;12.15;;;15.60;94.20;;;;;;5090611;28;20475;-85
2022/03/13 11:35:18;;;;;;;19.58;13.13;;;15.70;94.50;;;;;;5095493;28;20048;-81
2022/03/13 11:37:45;;;;;;;17.90;13.00;;;16.10;92.20;;;;;;5074850;28;20097;-79
2022/03/13 11:40:13;;;;;;;16.98;12.45;;;15.80;92.70;;;;;;5085659;28;20319;-84
2022/03/13 11:42:56;;;;;;;15.68;11.90;;;16.10;92.80;;;;;;5094874;28;20048;-81
2022/03/13 11:45:28;;;;;;;17.13;12.43;;;16.30;91.10;;;;;;5111207;28;20039;-83
2022/03/13 11:48:20;;;;;;;20.80;11.73;;;16.30;90.50;;;;;;5112216;28;20419;-83
2022/03/13 11:50:57;;;;;;;19.10;12.13;;;16.20;91.50;;;;;;5111807;28;20035;-83
2022/03/13 11:53:28;;;;;;;18.10;12.00;;;16.40;88.70;;;;;;5094930;28;20044;-83
2022/03/13 11:56:00;;;;;;;15.02;11.82;;;16.40;87.20;;;;;;5094686;28;20486;-82
2022/03/13 11:58:38;;;;;;;14.77;11.98;;;16.40;87.20;;;;;;5111737;28;20036;-83
2022/03/13 12:01:16;;;;;;;17.00;10.85;;;16.50;86.80;;;;;;5092507;28;20067;-85
2022/03/13 12:04:01;;;;;;;13.88;10.35;;;16.60;86.00;;;;;;5091096;28;20162;-82
2022/03/13 12:06:47;;;;;;;12.35;10.40;;;16.60;85.10;;;;;;5103739;28;20043;-82
2022/03/13 12:09:25;;;;;;;15.07;11.18;;;16.60;85.60;;;;;;5111503;28;20063;-86
2022/03/13 12:12:04;;;;;;;16.40;11.70;;;16.70;86.10;;;;;;5110861;28;20063;-82
2022/03/13 12:14:57;;;;;;;14.30;11.55;;;16.90;85.00;;;;;;5110921;28;20051;-86
2022/03/13 12:17:25;;;;;;;16.52;11.85;;;16.90;87.60;;;;;;5094526;28;20047;-83
2022/03/13 12:19:53;;;;;;;16.98;11.55;;;16.80;86.60;;;;;;5094213;28;20039;-84
2022/03/13 12:22:19;;;;;;;18.52;10.93;;;16.80;87.10;;;;;;5090652;28;20134;-79
2022/03/13 12:24:54;;;;;;;18.20;11.30;;;17.00;85.00;;;;;;5083248;27;20149;-83
2022/03/13 12:27:22;;;;;;;16.27;10.80;;;17.20;85.60;;;;;;5110519;28;20035;-81
2022/03/13 12:29:58;;;;;;;13.73;11.20;;;17.30;81.20;;;;;;5106651;28;20505;-79
2022/03/13 12:32:33;;;;;;;15.82;11.07;;;17.40;81.70;;;;;;5110252;28;20071;-77
2022/03/13 12:35:03;;;;;;;17.23;10.93;;;17.40;82.50;;;;;;5112662;27;20455;-79
2022/03/13 12:37:29;;;;;;;17.60;10.93;;;17.40;81.90;;;;;;5092797;28;20049;-79
2022/03/13 12:40:00;;;;;;;15.95;11.48;;;17.10;80.80;;;;;;5090160;27;20126;-81